createdAt,value
2022-11-06T00:01:15.824Z,101581.06
2022-11-06T00:03:44.979Z,101581.91
2022-11-06T00:06:35.109Z,101587.25
2022-11-06T00:09:13.983Z,101582.81
2022-11-06T00:11:42.306Z,101581.19
2022-11-06T00:14:13.476Z,101582.81
2022-11-06T00:16:41.692Z,101584.53
2022-11-06T00:19:09.447Z,101582.06
2022-11-06T00:21:37.368Z,101575.06
2022-11-06T00:24:06.497Z,101581.19
2022-11-06T00:26:34.820Z,101581.12
2022-11-06T00:29:03.250Z,101582.00
2022-11-06T00:31:32.255Z,101577.75
2022-11-06T00:34:00.733Z,101582.91
2022-11-06T00:36:30.783Z,101580.38
2022-11-06T00:38:58.819Z,101581.22
2022-11-06T00:41:26.962Z,101578.66
2022-11-06T00:43:57.196Z,101577.78
2022-11-06T00:46:24.879Z,101571.81
2022-11-06T00:48:52.758Z,101576.91
2022-11-06T00:51:22.174Z,101571.69
2022-11-06T00:53:53.946Z,101571.69
2022-11-06T00:56:22.177Z,101564.75
2022-11-06T00:58:49.856Z,101570.84
2022-11-06T01:01:18.846Z,101565.72
2022-11-06T01:03:48.273Z,101569.06
2022-11-06T01:06:20.293Z,101569.06
2022-11-06T01:08:48.536Z,101562.16
2022-11-06T01:11:21.198Z,101561.28
2022-11-06T01:13:50.378Z,101553.59
2022-11-06T01:16:18.118Z,101559.59
2022-11-06T01:18:46.205Z,101559.59
2022-11-06T01:21:15.497Z,101563.88
2022-11-06T01:23:43.310Z,101559.59
2022-11-06T01:26:11.782Z,101564.72
2022-11-06T01:28:40.403Z,101570.06
2022-11-06T01:31:12.765Z,101566.56
2022-11-06T01:33:40.792Z,101570.81
2022-11-06T01:36:12.329Z,101571.72
2022-11-06T01:38:44.596Z,101564.03
2022-11-06T01:41:13.478Z,101567.53
2022-11-06T01:43:50.479Z,101562.13
2022-11-06T01:46:19.066Z,101559.66
2022-11-06T01:48:52.367Z,101561.44
2022-11-06T01:51:21.382Z,101557.22
2022-11-06T01:53:49.389Z,101566.78
2022-11-06T01:56:18.142Z,101564.12
2022-11-06T01:58:47.091Z,101562.44
2022-11-06T02:01:15.105Z,101570.19
2022-11-06T02:03:50.869Z,101562.41
2022-11-06T02:06:18.459Z,101567.59
2022-11-06T02:08:46.448Z,101559.00
2022-11-06T02:11:14.180Z,101564.22
2022-11-06T02:14:02.779Z,101561.59
2022-11-06T02:16:40.229Z,101564.22
2022-11-06T02:19:19.932Z,101562.44
2022-11-06T02:22:01.661Z,101560.62
2022-11-06T02:24:47.625Z,101563.28
2022-11-06T02:27:18.618Z,101560.66
2022-11-06T02:29:49.861Z,101560.66
2022-11-06T02:32:23.643Z,101565.03
2022-11-06T02:34:54.086Z,101571.91
2022-11-06T02:37:25.449Z,101564.09
2022-11-06T02:39:53.466Z,101564.12
2022-11-06T02:42:21.489Z,101565.84
2022-11-06T02:44:50.793Z,101566.75
2022-11-06T02:47:20.521Z,101571.06
2022-11-06T02:49:59.651Z,101565.84
2022-11-06T02:52:30.973Z,101565.84
2022-11-06T02:55:04.051Z,101565.94
2022-11-06T02:57:35.895Z,101564.16
2022-11-06T03:00:08.195Z,101557.34
2022-11-06T03:02:56.421Z,101563.34
2022-11-06T03:05:27.188Z,101560.78
2022-11-06T03:07:55.137Z,101550.41
2022-11-06T03:10:28.221Z,101553.81
2022-11-06T03:13:01.728Z,101557.31
2022-11-06T03:15:35.080Z,101554.69
2022-11-06T03:18:15.761Z,101555.56
2022-11-06T03:20:48.726Z,101546.03
2022-11-06T03:23:19.346Z,101548.63
2022-11-06T03:25:48.013Z,101545.97
2022-11-06T03:28:23.116Z,101550.22
2022-11-06T03:30:52.836Z,101542.59
2022-11-06T03:33:35.811Z,101546.03
2022-11-06T03:36:10.941Z,101551.28
2022-11-06T03:38:42.594Z,101550.38
2022-11-06T03:41:29.007Z,101540.91
2022-11-06T03:43:58.941Z,101539.16
2022-11-06T03:46:27.177Z,101535.69
2022-11-06T03:49:01.112Z,101548.63
2022-11-06T03:51:49.195Z,101542.66
2022-11-06T03:54:42.969Z,101544.34
2022-11-06T03:57:16.391Z,101543.50
2022-11-06T03:59:47.661Z,101543.59
2022-11-06T04:02:17.324Z,101545.22
2022-11-06T04:04:45.261Z,101546.91
2022-11-06T04:07:14.835Z,101542.59
2022-11-06T04:10:03.792Z,101544.22
2022-11-06T04:12:51.144Z,101536.44
2022-11-06T04:15:19.888Z,101538.16
2022-11-06T04:17:47.888Z,101535.69
2022-11-06T04:20:38.946Z,101536.47
2022-11-06T04:23:06.950Z,101537.50
2022-11-06T04:25:59.811Z,101538.28
2022-11-06T04:28:41.894Z,101545.09
2022-11-06T04:31:20.765Z,101543.31
2022-11-06T04:33:54.711Z,101539.06
2022-11-06T04:36:37.967Z,101528.72
2022-11-06T04:39:29.246Z,101545.09
2022-11-06T04:42:11.205Z,101528.69
2022-11-06T04:47:27.092Z,101542.50
2022-11-06T04:49:57.351Z,101546.78
2022-11-06T04:52:26.792Z,101547.66
2022-11-06T04:54:55.166Z,101554.56
2022-11-06T04:57:23.636Z,101548.53
2022-11-06T04:59:51.151Z,101539.03
2022-11-06T05:02:18.730Z,101540.59
2022-11-06T05:04:46.880Z,101542.44
2022-11-06T05:07:14.974Z,101546.75
2022-11-06T05:09:43.074Z,101543.09
2022-11-06T05:12:11.021Z,101547.53
2022-11-06T05:14:38.569Z,101549.31
2022-11-06T05:17:06.092Z,101556.19
2022-11-06T05:19:33.974Z,101542.41
2022-11-06T05:22:19.932Z,101558.69
2022-11-06T05:24:47.823Z,101565.69
2022-11-06T05:27:15.392Z,101570.00
2022-11-06T05:29:42.922Z,101570.00
2022-11-06T05:32:10.745Z,101565.72
2022-11-06T05:34:38.393Z,101568.47
2022-11-06T05:37:05.997Z,101570.22
2022-11-06T05:39:36.619Z,101567.47
2022-11-06T05:42:08.110Z,101570.97
2022-11-06T05:44:36.284Z,101566.59
2022-11-06T05:47:03.805Z,101567.44
2022-11-06T05:49:31.355Z,101571.75
2022-11-06T05:51:59.299Z,101556.22
2022-11-06T05:57:31.146Z,101566.63
2022-11-06T05:59:58.605Z,101569.09
2022-11-06T06:02:26.543Z,101568.31
2022-11-06T06:04:54.495Z,101561.44
2022-11-06T06:07:22.722Z,101564.78
2022-11-06T06:09:50.239Z,101568.28
2022-11-06T06:12:18.245Z,101566.63
2022-11-06T06:14:50.262Z,101571.88
2022-11-06T06:17:18.615Z,101567.47
2022-11-06T06:19:46.197Z,101567.47
2022-11-06T06:22:13.780Z,101565.75
2022-11-06T06:24:41.834Z,101569.41
2022-11-06T06:27:09.432Z,101570.66
2022-11-06T06:29:37.839Z,101570.66
2022-11-06T06:32:06.177Z,101574.97
2022-11-06T06:37:20.202Z,101568.16
2022-11-06T06:39:47.965Z,101567.22
2022-11-06T06:45:01.275Z,101578.50
2022-11-06T06:47:29.545Z,101583.81
2022-11-06T06:49:59.483Z,101571.69
2022-11-06T06:52:29.042Z,101574.25
2022-11-06T06:57:42.808Z,101569.88
2022-11-06T07:00:10.713Z,101563.06
2022-11-06T07:02:40.899Z,101561.28
2022-11-06T07:07:54.650Z,101554.53
2022-11-06T07:10:23.246Z,101550.16
2022-11-06T07:12:50.865Z,101552.59
2022-11-06T07:15:18.420Z,101551.44
2022-11-06T07:17:46.296Z,101547.47
2022-11-06T07:20:13.873Z,101547.94
2022-11-06T07:25:26.804Z,101547.88
2022-11-06T07:27:56.048Z,101550.06
2022-11-06T07:30:29.857Z,101550.34
2022-11-06T07:32:58.273Z,101553.88
2022-11-06T07:35:25.840Z,101554.00
2022-11-06T07:37:53.719Z,101553.16
2022-11-06T07:40:21.153Z,101553.09
2022-11-06T07:42:48.740Z,101558.31
2022-11-06T07:45:16.924Z,101552.25
2022-11-06T07:53:16.140Z,101549.72
2022-11-06T07:55:53.819Z,101558.31
2022-11-06T07:58:21.971Z,101562.94
2022-11-06T08:00:51.149Z,101550.91
2022-11-06T08:03:19.905Z,101558.31
2022-11-06T08:05:47.796Z,101548.87
2022-11-06T08:08:15.671Z,101550.56
2022-11-06T08:10:48.038Z,101542.75
2022-11-06T08:13:16.964Z,101553.91
2022-11-06T08:15:44.874Z,101545.66
2022-11-06T08:18:13.055Z,101544.88
2022-11-06T08:20:41.338Z,101541.78
2022-11-06T08:23:11.543Z,101548.16
2022-11-06T08:25:39.311Z,101549.78
2022-11-06T08:28:06.782Z,101543.47
2022-11-06T08:30:34.735Z,101546.47
2022-11-06T08:33:04.272Z,101549.31
2022-11-06T08:35:31.996Z,101549.50
2022-11-06T08:37:59.937Z,101551.13
2022-11-06T08:40:30.860Z,101538.19
2022-11-06T08:42:59.846Z,101540.84
2022-11-06T08:45:28.261Z,101543.00
2022-11-06T08:47:55.867Z,101552.03
2022-11-06T08:50:23.484Z,101544.31
2022-11-06T08:52:51.274Z,101548.59
2022-11-06T08:55:18.764Z,101545.56
2022-11-06T08:57:46.414Z,101538.97
2022-11-06T09:00:14.709Z,101538.13
2022-11-06T09:02:42.490Z,101546.06
2022-11-06T09:05:10.626Z,101545.13
2022-11-06T09:07:38.532Z,101544.44
2022-11-06T09:10:06.323Z,101537.59
2022-11-06T09:12:34.017Z,101539.22
2022-11-06T09:15:01.863Z,101538.03
2022-11-06T09:17:29.711Z,101543.81
2022-11-06T09:19:57.242Z,101528.00
2022-11-06T09:22:25.382Z,101534.50
2022-11-06T09:25:07.976Z,101537.22
2022-11-06T09:27:46.264Z,101543.44
2022-11-06T09:30:15.090Z,101540.91
2022-11-06T09:32:47.109Z,101533.69
2022-11-06T09:35:15.073Z,101527.09
2022-11-06T09:37:43.205Z,101539.69
2022-11-06T09:40:31.321Z,101532.00
2022-11-06T09:43:04.807Z,101527.81
2022-11-06T09:45:34.235Z,101526.91
2022-11-06T09:48:12.116Z,101526.16
2022-11-06T09:50:44.474Z,101527.78
2022-11-06T09:53:31.084Z,101525.09
2022-11-06T09:56:02.145Z,101527.69
2022-11-06T09:58:42.441Z,101517.72
2022-11-06T10:01:26.870Z,101526.72
2022-11-06T10:03:57.762Z,101518.13
2022-11-06T10:06:26.590Z,101519.06
2022-11-06T10:08:57.197Z,101513.34
2022-11-06T10:11:41.030Z,101517.12
2022-11-06T10:14:27.446Z,101515.66
2022-11-06T10:17:00.631Z,101500.63
2022-11-06T10:19:46.839Z,101500.91
2022-11-06T10:22:18.972Z,101502.72
2022-11-06T10:24:46.619Z,101500.06
2022-11-06T10:27:18.807Z,101498.25
2022-11-06T10:30:05.479Z,101499.34
2022-11-06T10:32:51.625Z,101496.03
2022-11-06T10:35:24.507Z,101492.31
2022-11-06T10:38:01.583Z,101487.25
2022-11-06T10:40:31.955Z,101489.97
2022-11-06T10:43:26.266Z,101484.78
2022-11-06T10:46:13.340Z,101485.22
2022-11-06T10:48:47.317Z,101486.06
2022-11-06T10:51:24.486Z,101482.91
2022-11-06T10:53:52.149Z,101478.47
2022-11-06T10:56:47.956Z,101488.25
2022-11-06T10:59:16.797Z,101484.78
2022-11-06T11:01:44.839Z,101482.84
2022-11-06T11:04:12.561Z,101488.34
2022-11-06T11:06:42.735Z,101474.66
2022-11-06T11:09:45.716Z,101483.47
2022-11-06T11:12:33.926Z,101489.78
2022-11-06T11:15:13.547Z,101492.66
2022-11-06T11:17:42.320Z,101493.19
2022-11-06T11:20:30.053Z,101485.94
2022-11-06T11:23:05.570Z,101494.25
2022-11-06T11:25:34.218Z,101491.84
2022-11-06T11:28:04.925Z,101492.72
2022-11-06T11:30:33.359Z,101503.16
2022-11-06T11:33:01.174Z,101506.34
2022-11-06T11:35:30.967Z,101499.03
2022-11-06T11:38:12.364Z,101509.03
2022-11-06T11:40:40.288Z,101506.41
2022-11-06T11:43:20.158Z,101502.13
2022-11-06T11:46:07.971Z,101496.97
2022-11-06T11:48:41.694Z,101490.72
2022-11-06T11:51:28.565Z,101487.31
2022-11-06T11:53:58.767Z,101489.12
2022-11-06T11:56:57.806Z,101493.34
2022-11-06T11:59:20.182Z,101482.84
2022-11-06T12:01:48.570Z,101482.50
2022-11-06T12:04:23.950Z,101479.06
2022-11-06T12:06:59.511Z,101476.63
2022-11-06T12:09:28.730Z,101467.81
2022-11-06T12:11:57.811Z,101475.91
2022-11-06T12:14:27.613Z,101436.06
2022-11-06T12:16:58.173Z,101463.13
2022-11-06T12:19:28.057Z,101461.19
2022-11-06T12:22:01.428Z,101468.13
2022-11-06T12:24:49.746Z,101463.28
2022-11-06T12:27:28.131Z,101462.50
2022-11-06T12:30:07.032Z,101474.47
2022-11-06T12:32:34.948Z,101472.97
2022-11-06T12:35:14.965Z,101469.69
2022-11-06T12:37:58.295Z,101472.88
2022-11-06T12:40:30.371Z,101466.81
2022-11-06T12:43:10.632Z,101469.06
2022-11-06T12:45:44.846Z,101469.47
2022-11-06T12:48:31.799Z,101465.28
2022-11-06T12:51:06.714Z,101468.09
2022-11-06T12:53:54.224Z,101463.03
2022-11-06T12:56:36.838Z,101455.84
2022-11-06T12:59:11.187Z,101459.97
2022-11-06T13:01:44.250Z,101465.53
2022-11-06T13:04:50.990Z,101455.31
2022-11-06T13:07:24.509Z,101456.00
2022-11-06T13:10:03.073Z,101446.78
2022-11-06T13:12:39.645Z,101446.22
2022-11-06T13:15:19.966Z,101444.59
2022-11-06T13:18:08.201Z,101446.22
2022-11-06T13:20:54.601Z,101435.94
2022-11-06T13:23:28.160Z,101442.72
2022-11-06T13:25:56.337Z,101439.31
2022-11-06T13:28:50.273Z,101445.50
2022-11-06T13:31:20.721Z,101436.91
2022-11-06T13:33:51.354Z,101434.13
2022-11-06T13:36:20.283Z,101430.16
2022-11-06T13:39:07.279Z,101428.47
2022-11-06T13:41:35.277Z,101440.66
2022-11-06T13:44:03.688Z,101437.59
2022-11-06T13:46:50.319Z,101435.28
2022-11-06T13:49:28.759Z,101430.22
2022-11-06T13:52:01.285Z,101428.44
2022-11-06T13:54:39.248Z,101428.09
2022-11-06T13:57:26.569Z,101423.66
2022-11-06T13:59:54.452Z,101424.91
2022-11-06T14:02:22.962Z,101419.87
2022-11-06T14:04:53.838Z,101426.75
2022-11-06T14:07:25.266Z,101427.81
2022-11-06T14:10:33.634Z,101434.31
2022-11-06T14:13:11.425Z,101419.75
2022-11-06T14:15:43.513Z,101426.00
2022-11-06T14:18:27.056Z,101426.13
2022-11-06T14:21:46.845Z,101422.53
2022-11-06T14:27:39.164Z,101426.81
2022-11-06T14:30:18.293Z,101415.63
2022-11-06T14:32:48.216Z,101412.03
2022-11-06T14:35:34.221Z,101414.91
2022-11-06T14:38:17.673Z,101407.38
2022-11-06T14:40:45.767Z,101401.28
2022-11-06T14:43:22.948Z,101411.12
2022-11-06T14:45:59.288Z,101410.41
2022-11-06T14:48:32.620Z,101400.59
2022-11-06T14:51:01.570Z,101398.06
2022-11-06T14:53:32.265Z,101402.81
2022-11-06T14:56:01.136Z,101402.03
2022-11-06T14:58:47.615Z,101400.28
2022-11-06T15:01:16.300Z,101396.66
2022-11-06T15:03:51.761Z,101397.09
2022-11-06T15:06:19.250Z,101396.25
2022-11-06T15:08:47.337Z,101392.75
2022-11-06T15:11:30.534Z,101403.25
2022-11-06T15:14:06.383Z,101398.97
2022-11-06T15:16:41.063Z,101396.37
2022-11-06T15:19:14.620Z,101388.28
2022-11-06T15:21:51.127Z,101387.66
2022-11-06T15:24:27.560Z,101390.69
2022-11-06T15:27:00.478Z,101396.59
2022-11-06T15:29:38.522Z,101390.34
2022-11-06T15:32:26.212Z,101388.38
2022-11-06T15:34:54.032Z,101392.00
2022-11-06T15:40:47.813Z,101389.25
2022-11-06T15:47:12.255Z,101388.59
2022-11-06T15:49:52.609Z,101386.06
2022-11-06T15:52:35.671Z,101381.19
2022-11-06T15:55:23.393Z,101373.13
2022-11-06T16:00:41.625Z,101368.94
2022-11-06T16:03:12.030Z,101366.97
2022-11-06T16:05:40.024Z,101366.34
2022-11-06T16:08:08.193Z,101359.37
2022-11-06T16:10:37.047Z,101363.81
2022-11-06T16:13:05.756Z,101367.75
2022-11-06T16:15:46.615Z,101364.31
2022-11-06T16:18:21.840Z,101373.50
2022-11-06T16:20:55.637Z,101369.06
2022-11-06T16:23:34.819Z,101365.50
2022-11-06T16:26:11.319Z,101361.97
2022-11-06T16:28:43.546Z,101360.97
2022-11-06T16:31:14.321Z,101355.59
2022-11-06T16:33:53.384Z,101356.25
2022-11-06T16:36:21.173Z,101350.94
2022-11-06T16:38:49.286Z,101360.53
2022-11-06T16:41:36.306Z,101355.47
2022-11-06T16:44:23.566Z,101352.59
2022-11-06T16:47:10.825Z,101355.25
2022-11-06T16:49:42.016Z,101357.94
2022-11-06T16:52:23.545Z,101354.41
2022-11-06T16:54:59.580Z,101351.81
2022-11-06T16:57:33.990Z,101350.00
2022-11-06T17:00:12.206Z,101345.87
2022-11-06T17:02:40.017Z,101350.00
2022-11-06T17:05:09.770Z,101348.56
2022-11-06T17:07:37.690Z,101335.47
2022-11-06T17:10:24.989Z,101339.00
2022-11-06T17:12:53.113Z,101336.53
2022-11-06T17:15:20.677Z,101335.41
2022-11-06T17:17:50.017Z,101330.81
2022-11-06T17:20:19.442Z,101325.06
2022-11-06T17:22:47.060Z,101322.50
2022-11-06T17:25:17.787Z,101327.81
2022-11-06T17:27:45.782Z,101332.88
2022-11-06T17:30:14.975Z,101332.88
2022-11-06T17:32:42.479Z,101332.81
2022-11-06T17:35:10.560Z,101337.28
2022-11-06T17:37:38.196Z,101336.38
2022-11-06T17:40:05.924Z,101332.88
2022-11-06T17:42:33.945Z,101330.03
2022-11-06T17:45:01.572Z,101334.31
2022-11-06T17:47:30.268Z,101335.19
2022-11-06T17:49:59.082Z,101327.22
2022-11-06T17:52:26.732Z,101332.81
2022-11-06T17:54:54.410Z,101327.03
2022-11-06T17:57:24.192Z,101326.94
2022-11-06T18:02:59.760Z,101323.59
2022-11-06T18:05:26.658Z,101329.47
2022-11-06T18:07:54.303Z,101327.38
2022-11-06T18:10:26.068Z,101320.81
2022-11-06T18:12:57.662Z,101329.41
2022-11-06T18:15:25.613Z,101325.22
2022-11-06T18:17:53.272Z,101324.28
2022-11-06T18:20:21.154Z,101324.28
2022-11-06T18:25:34.837Z,101320.12
2022-11-06T18:28:03.781Z,101320.75
2022-11-06T18:30:31.758Z,101322.56
2022-11-06T18:32:59.904Z,101326.62
2022-11-06T18:35:27.441Z,101331.41
2022-11-06T18:37:54.937Z,101326.75
2022-11-06T18:40:22.970Z,101324.41
2022-11-06T18:42:53.154Z,101320.03
2022-11-06T18:45:20.743Z,101317.59
2022-11-06T18:47:48.825Z,101327.16
2022-11-06T18:50:16.487Z,101327.94
2022-11-06T18:52:57.470Z,101320.97
2022-11-06T18:55:27.672Z,101328.81
2022-11-06T18:57:55.915Z,101326.13
2022-11-06T19:00:23.957Z,101325.84
2022-11-06T19:02:55.451Z,101317.41
2022-11-06T19:05:22.969Z,101316.59
2022-11-06T19:07:53.827Z,101319.19
2022-11-06T19:10:24.544Z,101318.34
2022-11-06T19:12:52.305Z,101312.25
2022-11-06T19:15:19.985Z,101310.59
2022-11-06T19:17:47.990Z,101311.37
2022-11-06T19:20:20.754Z,101312.31
2022-11-06T19:22:50.464Z,101308.03
2022-11-06T19:25:19.408Z,101304.41
2022-11-06T19:27:50.119Z,101312.41
2022-11-06T19:30:18.107Z,101313.25
2022-11-06T19:32:45.774Z,101312.22
2022-11-06T19:35:15.562Z,101313.19
2022-11-06T19:37:43.557Z,101311.47
2022-11-06T19:40:11.765Z,101311.47
2022-11-06T19:42:39.938Z,101307.84
2022-11-06T19:45:08.975Z,101301.06
2022-11-06T19:47:37.510Z,101306.91
2022-11-06T19:50:05.301Z,101306.97
2022-11-06T19:52:41.672Z,101306.84
2022-11-06T19:55:26.097Z,101306.56
2022-11-06T19:57:58.357Z,101305.25
2022-11-06T20:00:25.868Z,101302.78
2022-11-06T20:02:56.911Z,101297.66
2022-11-06T20:05:24.541Z,101298.47
2022-11-06T20:07:52.215Z,101290.72
2022-11-06T20:10:20.117Z,101294.00
2022-11-06T20:12:47.800Z,101297.63
2022-11-06T20:15:18.813Z,101296.41
2022-11-06T20:17:51.571Z,101286.16
2022-11-06T20:20:19.236Z,101280.72
2022-11-06T20:22:50.784Z,101282.59
2022-11-06T20:25:19.078Z,101281.59
2022-11-06T20:27:47.168Z,101280.19
2022-11-06T20:30:15.486Z,101274.84
2022-11-06T20:32:44.727Z,101280.91
2022-11-06T20:35:16.752Z,101280.19
2022-11-06T20:37:47.837Z,101279.25
2022-11-06T20:40:15.521Z,101277.22
2022-11-06T20:42:43.065Z,101266.25
2022-11-06T20:45:11.175Z,101270.59
2022-11-06T20:47:41.633Z,101260.87
2022-11-06T20:50:09.445Z,101253.19
2022-11-06T20:52:37.430Z,101264.50
2022-11-06T20:55:05.474Z,101255.06
2022-11-06T20:57:33.131Z,101255.09
2022-11-06T21:00:01.089Z,101255.69
2022-11-06T21:02:30.422Z,101255.91
2022-11-06T21:04:58.128Z,101254.25
2022-11-06T21:07:26.130Z,101259.19
2022-11-06T21:09:53.823Z,101250.22
2022-11-06T21:12:21.324Z,101248.59
2022-11-06T21:14:49.544Z,101254.91
2022-11-06T21:17:17.260Z,101249.53
2022-11-06T21:19:44.907Z,101252.19
2022-11-06T21:22:12.930Z,101246.22
2022-11-06T21:24:41.477Z,101239.50
2022-11-06T21:27:10.048Z,101234.25
2022-11-06T21:29:38.114Z,101240.25
2022-11-06T21:32:05.928Z,101239.91
2022-11-06T21:34:33.608Z,101237.66
2022-11-06T21:37:03.075Z,101235.06
2022-11-06T21:39:36.496Z,101235.00
2022-11-06T21:42:06.007Z,101232.31
2022-11-06T21:44:33.639Z,101229.13
2022-11-06T21:47:01.272Z,101229.84
2022-11-06T21:49:29.362Z,101216.91
2022-11-06T21:52:17.034Z,101222.12
2022-11-06T21:55:03.497Z,101222.53
2022-11-06T21:57:31.093Z,101210.53
2022-11-06T21:59:59.098Z,101220.31
2022-11-06T22:02:27.070Z,101218.56
2022-11-06T22:04:55.301Z,101213.09
2022-11-06T22:07:22.884Z,101224.53
2022-11-06T22:09:52.178Z,101214.03
2022-11-06T22:12:20.605Z,101220.88
2022-11-06T22:14:48.352Z,101228.88
2022-11-06T22:17:19.151Z,101234.16
2022-11-06T22:19:47.296Z,101226.34
2022-11-06T22:22:14.968Z,101228.78
2022-11-06T22:24:42.475Z,101228.78
2022-11-06T22:27:10.410Z,101221.34
2022-11-06T22:29:41.222Z,101223.63
2022-11-06T22:32:08.898Z,101213.19
2022-11-06T22:34:36.853Z,101214.69
2022-11-06T22:37:04.798Z,101210.44
2022-11-06T22:39:32.458Z,101207.84
2022-11-06T22:42:00.609Z,101187.91
2022-11-06T22:44:28.375Z,101206.25
2022-11-06T22:46:56.024Z,101204.59
2022-11-06T22:49:24.068Z,101208.88
2022-11-06T22:51:51.992Z,101208.97
2022-11-06T22:54:22.457Z,101201.09
2022-11-06T22:56:50.441Z,101206.31
2022-11-06T22:59:18.076Z,101206.34
2022-11-06T23:01:45.734Z,101203.50
2022-11-06T23:04:17.393Z,101202.59
2022-11-06T23:06:45.702Z,101196.69
2022-11-06T23:09:13.464Z,101186.25
2022-11-06T23:11:41.410Z,101191.12
2022-11-06T23:14:09.642Z,101194.81
2022-11-06T23:16:56.061Z,101197.34
2022-11-06T23:19:24.486Z,101200.00
2022-11-06T23:21:52.825Z,101189.53
2022-11-06T23:24:20.525Z,101192.13
2022-11-06T23:26:48.623Z,101191.28
2022-11-06T23:29:16.003Z,101189.47
2022-11-06T23:31:43.726Z,101189.47
2022-11-06T23:34:11.700Z,101181.78
2022-11-06T23:36:39.437Z,101178.16
2022-11-06T23:39:07.083Z,101178.16
2022-11-06T23:41:47.427Z,101178.09
2022-11-06T23:44:34.568Z,101178.06
2022-11-06T23:47:02.873Z,101173.72
2022-11-06T23:49:30.541Z,101164.19
2022-11-06T23:51:58.271Z,101167.69
2022-11-06T23:54:26.204Z,101161.53
2022-11-06T23:56:53.979Z,101172.69
2022-11-06T23:59:21.680Z,101172.78
